Time;durP1;ratioP1;P1;durP2;ratioP2;P2;SDS_P1;SDS_P2;PMS_P1;PMS_P2;Temp;Humidity;BMP_temperature;BMP_pressure;BME280_temperature;BME280_humidity;BME280_pressure;Samples;Min_cycle;Max_cycle;Signal;HPM_P1;HPM_P2
2022/05/05 00:00:59;;;;;;;;;68.20;52.80;;;;;;;;5021228;28;8750;-65
2022/05/05 00:03:26;;;;;;;;;65.00;49.20;;;;;;;;5038487;28;9264;-65
2022/05/05 00:05:53;;;;;;;;;61.50;48.50;;;;;;;;5038612;28;8824;-64
2022/05/05 00:08:19;;;;;;;;;60.50;47.50;;;;;;;;5038030;28;8730;-65
2022/05/05 00:16:16;;;;;;;;;64.25;50.75;;;;;;;;5038262;28;8753;-65
2022/05/05 00:18:43;;;;;;;;;65.25;51.75;;;;;;;;5036413;28;8900;-65
2022/05/05 00:21:09;;;;;;;;;57.75;47.50;;;;;;;;5037699;28;8726;-65
2022/05/05 00:23:36;;;;;;;;;61.20;47.60;;;;;;;;5037477;28;8785;-65
2022/05/05 00:26:03;;;;;;;;;50.25;41.50;;;;;;;;5020775;28;8786;-65
2022/05/05 00:28:29;;;;;;;;;62.75;49.00;;;;;;;;5037437;28;9476;-64
2022/05/05 00:30:56;;;;;;;;;61.00;47.75;;;;;;;;5038159;28;8752;-65
2022/05/05 00:33:23;;;;;;;;;57.00;45.00;;;;;;;;5018888;28;8768;-64
2022/05/05 00:35:50;;;;;;;;;56.50;45.25;;;;;;;;5018326;28;8793;-65
2022/05/05 00:38:17;;;;;;;;;53.75;44.50;;;;;;;;5036360;28;8905;-65
2022/05/05 00:40:43;;;;;;;;;49.75;41.50;;;;;;;;5018497;28;9498;-64
2022/05/05 00:43:10;;;;;;;;;52.50;42.75;;;;;;;;5036403;28;8774;-64
2022/05/05 00:45:37;;;;;;;;;49.75;41.25;;;;;;;;5036383;28;8821;-64
2022/05/05 00:48:07;;;;;;;;;52.75;42.25;;;;;;;;5018923;28;8828;-64
2022/05/05 00:50:34;;;;;;;;;52.25;42.50;;;;;;;;5024734;28;8923;-64
2022/05/05 00:53:01;;;;;;;;;56.50;45.00;;;;;;;;5035913;28;8808;-66
2022/05/05 00:55:28;;;;;;;;;54.50;43.00;;;;;;;;5000256;28;8793;-65
2022/05/05 00:57:55;;;;;;;;;50.50;42.00;;;;;;;;5035724;28;8773;-65
2022/05/05 01:00:21;;;;;;;;;50.25;39.75;;;;;;;;5033034;28;8789;-65
2022/05/05 01:02:48;;;;;;;;;49.75;41.25;;;;;;;;5033747;28;8773;-65
2022/05/05 01:05:15;;;;;;;;;47.00;37.25;;;;;;;;5034040;28;8777;-65
2022/05/05 01:07:42;;;;;;;;;46.00;35.75;;;;;;;;5033436;28;8764;-65
2022/05/05 01:10:09;;;;;;;;;47.00;38.00;;;;;;;;5034537;28;8770;-65
2022/05/05 01:12:35;;;;;;;;;47.75;39.75;;;;;;;;5032865;28;8781;-67
2022/05/05 01:15:02;;;;;;;;;47.50;38.00;;;;;;;;5016245;28;8847;-66
2022/05/05 01:17:29;;;;;;;;;45.00;36.25;;;;;;;;5015832;28;8757;-66
2022/05/05 01:19:55;;;;;;;;;40.25;35.00;;;;;;;;5033946;28;9231;-66
2022/05/05 01:22:25;;;;;;;;;44.00;36.75;;;;;;;;5017738;28;8881;-66
2022/05/05 01:30:22;;;;;;;;;46.50;38.75;;;;;;;;5033061;28;8761;-66
2022/05/05 01:32:49;;;;;;;;;50.50;40.00;;;;;;;;5032982;28;8797;-66
2022/05/05 01:35:16;;;;;;;;;50.75;40.00;;;;;;;;5033429;28;8780;-67
2022/05/05 01:37:45;;;;;;;;;43.25;34.75;;;;;;;;5015428;28;9459;-64
2022/05/05 01:40:12;;;;;;;;;46.75;39.25;;;;;;;;5033568;28;8741;-64
2022/05/05 01:42:39;;;;;;;;;38.50;34.25;;;;;;;;5033769;28;8927;-65
2022/05/05 01:45:09;;;;;;;;;47.50;39.00;;;;;;;;5016443;28;8785;-64
2022/05/05 01:47:37;;;;;;;;;44.25;35.50;;;;;;;;5036529;28;8781;-64
2022/05/05 01:50:03;;;;;;;;;50.00;41.25;;;;;;;;5037550;28;8801;-63
2022/05/05 01:52:30;;;;;;;;;47.00;40.25;;;;;;;;5037549;28;8777;-63
2022/05/05 01:54:57;;;;;;;;;43.75;36.25;;;;;;;;5037809;28;8765;-65
2022/05/05 01:57:24;;;;;;;;;45.00;36.75;;;;;;;;5037087;28;8773;-64
2022/05/05 01:59:50;;;;;;;;;41.25;35.25;;;;;;;;5036912;28;8777;-65
2022/05/05 02:02:17;;;;;;;;;43.00;35.00;;;;;;;;5037037;28;9014;-65
2022/05/05 02:04:44;;;;;;;;;49.00;38.50;;;;;;;;5036488;28;8827;-64
2022/05/05 02:07:10;;;;;;;;;47.00;37.50;;;;;;;;5037731;28;8776;-65
2022/05/05 02:09:37;;;;;;;;;42.25;35.25;;;;;;;;5036507;28;8762;-65
2022/05/05 02:12:04;;;;;;;;;45.00;36.50;;;;;;;;5037135;28;8745;-65
2022/05/05 02:14:31;;;;;;;;;41.25;35.50;;;;;;;;5036595;28;8838;-65
2022/05/05 02:16:58;;;;;;;;;43.00;36.50;;;;;;;;5037035;28;8891;-64
2022/05/05 02:19:24;;;;;;;;;40.50;34.75;;;;;;;;5019556;28;8762;-57
2022/05/05 02:21:51;;;;;;;;;43.25;36.00;;;;;;;;5039677;28;8749;-63
2022/05/05 02:24:18;;;;;;;;;35.75;32.50;;;;;;;;5039476;28;8783;-63
2022/05/05 02:26:45;;;;;;;;;40.75;33.50;;;;;;;;5039320;28;8922;-64
2022/05/05 02:29:11;;;;;;;;;40.75;34.00;;;;;;;;5021024;28;8778;-62
2022/05/05 02:31:38;;;;;;;;;35.50;32.50;;;;;;;;5020290;28;8789;-62
2022/05/05 02:34:08;;;;;;;;;34.25;27.25;;;;;;;;5037518;28;8785;-63
2022/05/05 02:39:20;;;;;;;;;38.50;33.50;;;;;;;;5038423;28;8761;-64
2022/05/05 02:41:47;;;;;;;;;42.25;33.50;;;;;;;;5039136;28;8770;-64
2022/05/05 02:44:14;;;;;;;;;38.50;32.25;;;;;;;;5037275;28;8792;-64
2022/05/05 02:46:41;;;;;;;;;37.50;31.25;;;;;;;;5038502;28;8780;-64
2022/05/05 02:49:07;;;;;;;;;36.50;34.00;;;;;;;;5035951;28;8761;-64
2022/05/05 02:51:34;;;;;;;;;41.00;32.25;;;;;;;;5038063;28;8749;-65
2022/05/05 02:56:46;;;;;;;;;28.25;25.00;;;;;;;;5038456;28;8784;-67
2022/05/05 02:59:12;;;;;;;;;38.00;31.25;;;;;;;;5037608;28;8966;-67
2022/05/05 03:01:39;;;;;;;;;33.75;26.75;;;;;;;;5038055;28;8876;-66
2022/05/05 03:04:06;;;;;;;;;34.25;31.75;;;;;;;;5039779;28;8749;-67
2022/05/05 03:06:33;;;;;;;;;36.75;31.25;;;;;;;;5038787;28;8748;-65
2022/05/05 03:08:59;;;;;;;;;36.00;30.00;;;;;;;;5037769;28;9287;-65
2022/05/05 03:11:26;;;;;;;;;37.25;29.50;;;;;;;;5037691;28;8752;-64
2022/05/05 03:13:53;;;;;;;;;35.25;30.50;;;;;;;;5038479;28;8816;-65
2022/05/05 03:16:19;;;;;;;;;24.00;20.75;;;;;;;;5038027;28;8863;-64
2022/05/05 03:18:46;;;;;;;;;25.00;20.25;;;;;;;;5037753;28;8761;-65
2022/05/05 03:21:13;;;;;;;;;27.50;26.75;;;;;;;;5020746;28;8872;-64
2022/05/05 03:23:39;;;;;;;;;28.25;26.25;;;;;;;;5037622;28;8745;-64
2022/05/05 03:26:06;;;;;;;;;35.25;30.50;;;;;;;;5019002;28;9253;-64
2022/05/05 03:28:33;;;;;;;;;34.50;30.50;;;;;;;;5003585;28;8765;-64
2022/05/05 03:31:00;;;;;;;;;26.50;25.25;;;;;;;;5038010;28;8959;-64
2022/05/05 03:33:26;;;;;;;;;27.75;24.25;;;;;;;;5035736;28;8773;-65
2022/05/05 03:35:53;;;;;;;;;32.25;28.25;;;;;;;;5036708;28;8813;-63
2022/05/05 03:38:20;;;;;;;;;25.25;23.25;;;;;;;;5018733;28;8781;-63
2022/05/05 03:40:47;;;;;;;;;34.75;29.00;;;;;;;;5037882;28;8808;-65
2022/05/05 03:43:14;;;;;;;;;28.50;25.75;;;;;;;;5038749;28;8824;-64
2022/05/05 03:45:41;;;;;;;;;33.25;29.75;;;;;;;;5037282;28;8793;-64
2022/05/05 03:48:07;;;;;;;;;30.75;27.25;;;;;;;;5019659;28;8863;-64
2022/05/05 03:50:34;;;;;;;;;29.25;25.50;;;;;;;;5037528;28;8781;-64
2022/05/05 03:53:01;;;;;;;;;26.25;24.00;;;;;;;;5020382;28;8781;-65
2022/05/05 03:55:29;;;;;;;;;35.75;29.50;;;;;;;;5036783;28;8801;-65
2022/05/05 03:57:55;;;;;;;;;36.00;28.50;;;;;;;;5020523;28;8769;-64
2022/05/05 04:00:23;;;;;;;;;23.25;20.25;;;;;;;;5019054;28;8785;-63
2022/05/05 04:05:35;;;;;;;;;29.25;26.75;;;;;;;;5022209;28;8784;-64
2022/05/05 04:08:05;;;;;;;;;31.25;28.50;;;;;;;;5035905;28;8781;-64
2022/05/05 04:10:32;;;;;;;;;29.00;27.50;;;;;;;;5035874;28;8777;-65
2022/05/05 04:12:59;;;;;;;;;36.00;30.00;;;;;;;;5037870;28;8757;-64
2022/05/05 04:15:26;;;;;;;;;38.25;32.25;;;;;;;;5019071;28;8793;-64
2022/05/05 04:17:53;;;;;;;;;30.50;27.00;;;;;;;;5036431;28;8799;-65
2022/05/05 04:20:22;;;;;;;;;18.50;16.75;;;;;;;;5036373;28;8795;-64
2022/05/05 04:22:52;;;;;;;;;28.25;25.75;;;;;;;;5036405;28;8839;-65
2022/05/05 04:25:18;;;;;;;;;32.25;28.00;;;;;;;;5016337;28;8771;-63
2022/05/05 04:27:45;;;;;;;;;40.75;32.50;;;;;;;;5015362;28;8784;-66
2022/05/05 04:30:14;;;;;;;;;34.50;31.00;;;;;;;;5015576;28;8776;-65
2022/05/05 04:32:41;;;;;;;;;33.00;31.00;;;;;;;;5015457;28;8788;-64
2022/05/05 04:35:08;;;;;;;;;34.75;31.25;;;;;;;;5016496;28;8871;-64
2022/05/05 04:37:35;;;;;;;;;32.75;28.75;;;;;;;;5015628;28;9325;-64
2022/05/05 04:40:02;;;;;;;;;37.75;31.25;;;;;;;;5023512;28;9478;-64
2022/05/05 04:42:28;;;;;;;;;36.75;32.25;;;;;;;;5036434;28;8765;-64
2022/05/05 04:44:55;;;;;;;;;30.00;29.00;;;;;;;;5018919;28;8765;-64
2022/05/05 04:47:22;;;;;;;;;31.25;29.50;;;;;;;;5018628;28;9462;-63
2022/05/05 04:49:48;;;;;;;;;33.75;30.00;;;;;;;;5018601;28;8789;-64
2022/05/05 04:52:15;;;;;;;;;37.75;29.50;;;;;;;;5035925;28;8742;-64
2022/05/05 04:54:43;;;;;;;;;35.25;32.00;;;;;;;;5036244;28;8769;-64
2022/05/05 04:57:10;;;;;;;;;38.50;32.25;;;;;;;;5036310;28;8873;-64
2022/05/05 04:59:39;;;;;;;;;36.00;31.50;;;;;;;;5036003;28;9619;-64
2022/05/05 05:02:06;;;;;;;;;32.25;27.00;;;;;;;;5018394;28;8797;-64
2022/05/05 05:04:33;;;;;;;;;39.25;32.25;;;;;;;;5035196;28;8757;-64
2022/05/05 05:07:00;;;;;;;;;36.50;31.75;;;;;;;;5036729;28;8746;-64
2022/05/05 05:09:27;;;;;;;;;42.50;33.25;;;;;;;;5035417;28;8773;-64
2022/05/05 05:11:54;;;;;;;;;35.75;33.25;;;;;;;;5018546;28;8864;-64
2022/05/05 05:14:20;;;;;;;;;35.75;32.25;;;;;;;;5035296;28;8777;-64
2022/05/05 05:16:47;;;;;;;;;33.25;29.00;;;;;;;;5035753;28;8785;-64
2022/05/05 05:19:14;;;;;;;;;40.25;34.25;;;;;;;;5036671;28;8757;-64
2022/05/05 05:21:40;;;;;;;;;35.00;29.50;;;;;;;;5035207;28;8738;-65
2022/05/05 05:24:07;;;;;;;;;34.00;31.00;;;;;;;;5036149;28;8843;-65
2022/05/05 05:26:34;;;;;;;;;30.25;30.00;;;;;;;;5018549;28;8783;-65
2022/05/05 05:29:01;;;;;;;;;33.50;29.00;;;;;;;;5036003;28;8721;-65
2022/05/05 05:31:28;;;;;;;;;28.50;26.75;;;;;;;;5034854;28;8750;-65
2022/05/05 05:33:55;;;;;;;;;31.75;28.50;;;;;;;;5035032;28;8853;-67
2022/05/05 05:36:21;;;;;;;;;35.00;31.25;;;;;;;;5034000;28;8748;-65
2022/05/05 05:38:51;;;;;;;;;33.75;30.50;;;;;;;;5036049;28;8789;-66
2022/05/05 05:41:18;;;;;;;;;32.00;29.75;;;;;;;;5036374;28;8843;-64
2022/05/05 05:43:45;;;;;;;;;38.50;31.25;;;;;;;;5018650;28;8813;-65
2022/05/05 05:46:12;;;;;;;;;34.50;30.00;;;;;;;;5036277;28;8789;-65
2022/05/05 05:48:38;;;;;;;;;23.75;22.25;;;;;;;;5035001;28;8850;-65
2022/05/05 05:51:08;;;;;;;;;29.00;28.50;;;;;;;;5017279;28;8808;-66
2022/05/05 05:53:35;;;;;;;;;26.75;26.25;;;;;;;;5035060;28;8777;-66
2022/05/05 05:56:02;;;;;;;;;26.00;23.00;;;;;;;;5017775;28;8781;-62
2022/05/05 05:58:31;;;;;;;;;28.75;24.50;;;;;;;;5034588;28;8800;-66
2022/05/05 06:00:58;;;;;;;;;29.75;26.50;;;;;;;;5036702;28;8760;-65
2022/05/05 06:06:10;;;;;;;;;33.50;30.00;;;;;;;;5015650;28;8762;-65
2022/05/05 06:08:37;;;;;;;;;29.25;28.00;;;;;;;;5016499;28;8821;-66
2022/05/05 06:11:04;;;;;;;;;35.50;27.50;;;;;;;;4995548;28;8785;-63
2022/05/05 06:13:30;;;;;;;;;29.25;26.50;;;;;;;;4978318;28;8808;-66
2022/05/05 06:15:57;;;;;;;;;26.00;21.75;;;;;;;;4996735;28;8894;-64
2022/05/05 06:18:24;;;;;;;;;27.00;26.00;;;;;;;;4996266;28;8789;-64
2022/05/05 06:20:53;;;;;;;;;29.25;25.25;;;;;;;;4996173;28;8772;-64
2022/05/05 06:23:19;;;;;;;;;24.25;23.50;;;;;;;;4997761;28;8936;-63
2022/05/05 06:25:46;;;;;;;;;31.75;28.50;;;;;;;;5015216;28;8846;-65
2022/05/05 06:28:13;;;;;;;;;33.50;29.00;;;;;;;;5014643;28;8849;-66
2022/05/05 06:30:39;;;;;;;;;36.00;31.00;;;;;;;;5032827;28;8772;-66
2022/05/05 06:33:06;;;;;;;;;30.50;25.00;;;;;;;;5025666;28;8932;-64
2022/05/05 06:35:33;;;;;;;;;36.50;29.25;;;;;;;;5012652;28;8788;-63
2022/05/05 06:38:00;;;;;;;;;30.00;28.00;;;;;;;;5038425;28;8880;-64
2022/05/05 06:40:27;;;;;;;;;32.25;30.00;;;;;;;;5028240;28;8772;-60
2022/05/05 06:42:53;;;;;;;;;31.25;27.50;;;;;;;;5049404;28;8745;-63
2022/05/05 06:45:20;;;;;;;;;32.25;29.25;;;;;;;;5041340;28;8789;-61
2022/05/05 06:47:47;;;;;;;;;29.25;23.75;;;;;;;;5038661;28;8769;-63
2022/05/05 06:50:15;;;;;;;;;30.00;27.00;;;;;;;;5038707;28;8765;-63
2022/05/05 06:52:41;;;;;;;;;24.25;21.00;;;;;;;;5021221;28;8749;-63
2022/05/05 06:55:09;;;;;;;;;23.00;20.50;;;;;;;;5038987;28;8756;-64
2022/05/05 06:57:36;;;;;;;;;30.25;27.25;;;;;;;;5038114;28;8749;-65
2022/05/05 07:00:03;;;;;;;;;19.75;19.75;;;;;;;;5038455;28;8799;-63
2022/05/05 07:02:30;;;;;;;;;30.25;23.25;;;;;;;;5035845;28;8773;-64
2022/05/05 07:07:42;;;;;;;;;29.00;25.00;;;;;;;;5038218;28;9402;-63
2022/05/05 07:12:54;;;;;;;;;23.25;22.50;;;;;;;;5039181;28;8765;-68
2022/05/05 07:15:20;;;;;;;;;29.50;27.00;;;;;;;;5038385;28;8787;-67
2022/05/05 07:17:48;;;;;;;;;33.25;29.50;;;;;;;;5038793;28;8773;-69
2022/05/05 07:20:14;;;;;;;;;30.75;26.50;;;;;;;;5020299;28;8869;-68
2022/05/05 07:22:41;;;;;;;;;27.75;25.25;;;;;;;;5037660;28;9419;-68
2022/05/05 07:25:08;;;;;;;;;26.25;22.00;;;;;;;;5020213;28;8730;-68
2022/05/05 07:27:35;;;;;;;;;29.75;27.25;;;;;;;;5036496;28;8932;-68
2022/05/05 07:30:02;;;;;;;;;23.75;23.00;;;;;;;;5036764;28;8753;-68
2022/05/05 07:32:29;;;;;;;;;24.75;22.75;;;;;;;;5037508;28;8777;-68
2022/05/05 07:34:56;;;;;;;;;34.00;28.25;;;;;;;;5035684;28;8781;-67
2022/05/05 07:37:23;;;;;;;;;20.50;19.25;;;;;;;;5038384;28;8793;-67
2022/05/05 07:39:50;;;;;;;;;23.50;21.75;;;;;;;;5020607;28;8772;-69
2022/05/05 07:42:17;;;;;;;;;23.50;23.50;;;;;;;;5037633;28;9359;-69
2022/05/05 07:44:43;;;;;;;;;22.75;20.25;;;;;;;;5035876;28;8777;-69
2022/05/05 07:47:10;;;;;;;;;29.50;26.25;;;;;;;;5037147;28;8799;-68
2022/05/05 07:49:37;;;;;;;;;32.00;29.00;;;;;;;;5037121;28;8738;-68
2022/05/05 07:52:03;;;;;;;;;27.00;26.25;;;;;;;;5037821;28;8865;-68
2022/05/05 07:54:39;;;;;;;;;27.00;25.75;;;;;;;;5036249;28;8828;-64
2022/05/05 07:57:07;;;;;;;;;22.50;22.25;;;;;;;;5037223;28;8742;-65
2022/05/05 07:59:34;;;;;;;;;29.50;27.25;;;;;;;;5018820;28;8779;-65
2022/05/05 08:02:01;;;;;;;;;23.50;20.50;;;;;;;;5037062;28;8738;-67
2022/05/05 08:04:27;;;;;;;;;22.25;20.75;;;;;;;;5037131;28;8939;-68
2022/05/05 08:06:57;;;;;;;;;26.00;23.00;;;;;;;;5038096;28;8757;-66
2022/05/05 08:09:24;;;;;;;;;24.50;23.00;;;;;;;;5036807;28;8769;-67
2022/05/05 08:11:50;;;;;;;;;25.00;20.00;;;;;;;;5037207;28;8738;-67
2022/05/05 08:14:17;;;;;;;;;25.50;24.50;;;;;;;;5019837;28;9390;-67
2022/05/05 08:16:44;;;;;;;;;30.25;26.75;;;;;;;;5037398;28;9161;-68
2022/05/05 08:19:11;;;;;;;;;28.00;26.25;;;;;;;;5020067;28;8793;-67
2022/05/05 08:21:37;;;;;;;;;25.50;21.50;;;;;;;;5037289;28;8801;-69
2022/05/05 08:29:34;;;;;;;;;29.00;27.00;;;;;;;;5029508;28;8749;-66
2022/05/05 08:32:00;;;;;;;;;27.25;23.75;;;;;;;;5038034;28;8729;-66
2022/05/05 08:34:27;;;;;;;;;28.75;26.25;;;;;;;;5037380;28;8765;-65
2022/05/05 08:36:54;;;;;;;;;32.75;28.25;;;;;;;;5037350;28;8761;-68
2022/05/05 08:39:21;;;;;;;;;31.75;28.75;;;;;;;;5034226;28;8741;-63
2022/05/05 08:41:47;;;;;;;;;36.75;31.25;;;;;;;;5016976;28;8773;-62
2022/05/05 08:44:15;;;;;;;;;39.25;31.50;;;;;;;;5016923;28;8883;-62
2022/05/05 08:46:41;;;;;;;;;44.50;35.50;;;;;;;;5015961;28;8807;-62
2022/05/05 08:49:08;;;;;;;;;36.75;31.00;;;;;;;;5035147;28;8769;-63
2022/05/05 08:51:39;;;;;;;;;44.50;33.25;;;;;;;;5033996;28;9655;-62
2022/05/05 08:54:07;;;;;;;;;39.50;32.50;;;;;;;;4999819;28;8785;-62
2022/05/05 08:56:34;;;;;;;;;42.75;35.50;;;;;;;;5015920;28;8809;-62
2022/05/05 08:59:02;;;;;;;;;41.25;35.00;;;;;;;;5034596;28;8781;-62
2022/05/05 09:01:36;;;;;;;;;45.50;36.25;;;;;;;;5017409;28;8765;-62
2022/05/05 09:04:04;;;;;;;;;37.00;33.25;;;;;;;;5018122;28;8762;-62
2022/05/05 09:06:51;;;;;;;;;36.00;33.50;;;;;;;;5034019;28;8806;-63
2022/05/05 09:09:27;;;;;;;;;40.00;33.50;;;;;;;;5034037;28;9002;-61
2022/05/05 09:12:06;;;;;;;;;30.25;28.00;;;;;;;;5034409;28;8792;-62
2022/05/05 09:14:37;;;;;;;;;34.25;30.50;;;;;;;;5033779;28;9490;-62
2022/05/05 09:17:04;;;;;;;;;27.50;27.50;;;;;;;;5034608;28;8785;-62
2022/05/05 09:19:35;;;;;;;;;33.00;29.00;;;;;;;;5033583;28;12109;-62
2022/05/05 09:22:03;;;;;;;;;33.00;31.00;;;;;;;;4997868;28;8776;-62
2022/05/05 09:24:36;;;;;;;;;33.00;31.00;;;;;;;;5015937;28;8783;-62
2022/05/05 09:27:23;;;;;;;;;37.00;32.00;;;;;;;;5021288;28;8842;-62
2022/05/05 09:30:03;;;;;;;;;39.50;32.25;;;;;;;;5035464;28;8778;-62
2022/05/05 09:32:29;;;;;;;;;33.75;32.00;;;;;;;;5019829;28;9442;-62
2022/05/05 09:34:57;;;;;;;;;32.25;30.00;;;;;;;;5036365;28;8788;-62
2022/05/05 09:37:24;;;;;;;;;36.50;32.00;;;;;;;;5036846;28;8937;-62
2022/05/05 09:39:55;;;;;;;;;37.25;32.00;;;;;;;;5019093;28;9445;-62
2022/05/05 09:42:43;;;;;;;;;37.50;31.25;;;;;;;;5036619;28;8858;-62
2022/05/05 09:45:13;;;;;;;;;29.75;26.25;;;;;;;;5018836;28;9450;-63
2022/05/05 09:47:41;;;;;;;;;29.50;24.00;;;;;;;;5036404;28;8801;-62
2022/05/05 09:50:08;;;;;;;;;35.75;31.50;;;;;;;;5036362;28;8802;-63
2022/05/05 09:58:12;;;;;;;;;41.75;33.00;;;;;;;;5016957;28;8752;-62
2022/05/05 10:06:22;;;;;;;;;36.25;33.25;;;;;;;;5016852;28;8779;-62
2022/05/05 10:08:50;;;;;;;;;35.00;30.00;;;;;;;;5027139;28;8802;-62
2022/05/05 10:11:19;;;;;;;;;34.00;32.25;;;;;;;;5006037;28;8773;-61
2022/05/05 10:13:46;;;;;;;;;37.75;32.25;;;;;;;;5022920;28;8801;-63
2022/05/05 10:16:15;;;;;;;;;32.00;30.25;;;;;;;;5022768;28;8858;-62
2022/05/05 10:18:43;;;;;;;;;30.25;26.75;;;;;;;;5022702;28;8742;-63
2022/05/05 10:21:18;;;;;;;;;36.25;30.25;;;;;;;;5039924;28;8781;-62
2022/05/05 10:24:03;;;;;;;;;34.50;31.75;;;;;;;;5039982;28;8790;-62
2022/05/05 10:26:30;;;;;;;;;34.50;29.25;;;;;;;;5039978;28;8833;-62
2022/05/05 10:28:56;;;;;;;;;35.75;30.00;;;;;;;;5022267;28;8765;-63
2022/05/05 10:31:33;;;;;;;;;44.00;33.00;;;;;;;;5039725;28;8741;-62
2022/05/05 10:34:08;;;;;;;;;30.50;29.50;;;;;;;;5039655;28;8769;-62
2022/05/05 10:36:35;;;;;;;;;31.25;29.00;;;;;;;;5004071;28;8997;-62
2022/05/05 10:39:18;;;;;;;;;34.50;29.50;;;;;;;;5009287;28;8824;-62
2022/05/05 10:41:44;;;;;;;;;31.00;28.25;;;;;;;;5020323;28;8778;-62
2022/05/05 10:44:14;;;;;;;;;34.75;28.75;;;;;;;;5018686;28;8782;-62
2022/05/05 10:47:01;;;;;;;;;31.50;29.50;;;;;;;;5019455;28;9368;-62
2022/05/05 10:49:40;;;;;;;;;56.00;44.20;;;;;;;;5019517;28;8771;-62
2022/05/05 10:52:12;;;;;;;;;48.50;38.50;;;;;;;;5020669;28;8783;-62
2022/05/05 10:54:40;;;;;;;;;39.75;34.00;;;;;;;;5034140;28;8935;-63
2022/05/05 10:57:25;;;;;;;;;38.75;31.00;;;;;;;;5039266;28;8962;-62
2022/05/05 11:00:10;;;;;;;;;34.25;30.50;;;;;;;;5020066;28;8836;-62
2022/05/05 11:02:41;;;;;;;;;38.25;31.75;;;;;;;;5019903;28;8794;-62
2022/05/05 11:05:27;;;;;;;;;40.75;35.25;;;;;;;;5019688;28;8798;-62
2022/05/05 11:07:54;;;;;;;;;36.25;30.50;;;;;;;;5019937;28;8754;-62
2022/05/05 11:10:39;;;;;;;;;43.25;35.50;;;;;;;;5019958;28;8747;-62
2022/05/05 11:13:09;;;;;;;;;43.00;33.00;;;;;;;;5020432;28;8767;-62
2022/05/05 11:23:58;;;;;;;;;36.50;32.50;;;;;;;;5021141;28;9615;-62
2022/05/05 11:26:24;;;;;;;;;44.00;33.75;;;;;;;;5021575;28;8913;-62
2022/05/05 11:28:51;;;;;;;;;44.00;35.50;;;;;;;;5018948;28;9321;-62
2022/05/05 11:31:19;;;;;;;;;42.50;33.50;;;;;;;;5019321;28;8732;-61
2022/05/05 11:33:54;;;;;;;;;40.00;33.75;;;;;;;;5018778;28;8897;-62
2022/05/05 11:36:21;;;;;;;;;36.50;30.25;;;;;;;;4992983;28;8923;-62
2022/05/05 11:38:48;;;;;;;;;40.00;35.50;;;;;;;;5024730;28;8784;-62
2022/05/05 11:41:20;;;;;;;;;40.50;35.00;;;;;;;;5038190;28;8782;-62
2022/05/05 11:46:32;;;;;;;;;46.00;35.50;;;;;;;;5038704;28;8746;-62
2022/05/05 11:48:59;;;;;;;;;42.50;34.25;;;;;;;;5021224;28;8746;-62
2022/05/05 11:51:29;;;;;;;;;43.00;34.75;;;;;;;;5037968;28;8799;-62
2022/05/05 11:54:04;;;;;;;;;45.00;35.75;;;;;;;;5037944;28;8788;-62
2022/05/05 11:56:31;;;;;;;;;41.00;33.75;;;;;;;;5036846;28;8781;-62
2022/05/05 12:02:05;;;;;;;;;41.00;34.50;;;;;;;;5038501;28;9390;-62
2022/05/05 12:04:33;;;;;;;;;47.00;38.00;;;;;;;;5038309;28;8752;-62
2022/05/05 12:07:03;;;;;;;;;45.00;35.25;;;;;;;;5038531;28;8807;-62
2022/05/05 12:09:30;;;;;;;;;45.75;35.50;;;;;;;;5036352;28;8789;-62
2022/05/05 12:11:56;;;;;;;;;46.25;36.75;;;;;;;;5020557;28;8765;-62
2022/05/05 12:14:23;;;;;;;;;42.50;35.25;;;;;;;;5037852;28;8776;-62
2022/05/05 12:16:53;;;;;;;;;34.75;30.75;;;;;;;;5037663;28;8784;-62
2022/05/05 12:19:21;;;;;;;;;46.25;37.75;;;;;;;;5038143;28;8769;-62
2022/05/05 12:21:54;;;;;;;;;41.25;35.25;;;;;;;;5020517;28;8742;-62
2022/05/05 12:24:22;;;;;;;;;45.00;36.75;;;;;;;;5037378;28;8973;-62
2022/05/05 12:26:49;;;;;;;;;39.25;33.00;;;;;;;;5019936;28;9419;-62
2022/05/05 12:29:18;;;;;;;;;42.25;34.25;;;;;;;;5036056;28;8781;-62
2022/05/05 12:31:58;;;;;;;;;46.75;37.75;;;;;;;;5037361;28;8801;-62
2022/05/05 12:34:27;;;;;;;;;44.25;33.00;;;;;;;;5037573;28;8827;-60
2022/05/05 12:37:26;;;;;;;;;46.50;35.25;;;;;;;;5038217;28;8774;-62
2022/05/05 12:40:02;;;;;;;;;48.75;39.00;;;;;;;;5001160;28;8769;-62
2022/05/05 12:42:43;;;;;;;;;57.50;43.00;;;;;;;;5020749;28;8796;-62
2022/05/05 12:45:16;;;;;;;;;62.75;47.50;;;;;;;;5020085;28;8804;-62
2022/05/05 12:47:43;;;;;;;;;47.75;38.50;;;;;;;;5037506;28;8780;-62
2022/05/05 12:50:28;;;;;;;;;50.50;40.25;;;;;;;;5037291;28;8843;-62
2022/05/05 13:01:09;;;;;;;;;62.20;51.40;;;;;;;;5018236;28;8743;-62
2022/05/05 13:03:37;;;;;;;;;50.25;41.00;;;;;;;;5001699;28;8783;-62
2022/05/05 13:06:04;;;;;;;;;34.00;32.00;;;;;;;;5032412;28;8747;-62
2022/05/05 13:08:31;;;;;;;;;46.75;37.25;;;;;;;;5012004;28;8827;-62
2022/05/05 13:10:58;;;;;;;;;43.00;35.50;;;;;;;;4996347;28;8847;-62
2022/05/05 13:13:24;;;;;;;;;44.50;37.25;;;;;;;;4998486;28;8831;-62
2022/05/05 13:15:51;;;;;;;;;48.75;37.50;;;;;;;;5017617;28;8858;-62
2022/05/05 13:18:18;;;;;;;;;47.00;39.00;;;;;;;;5017097;28;8783;-58
2022/05/05 13:20:44;;;;;;;;;48.25;39.25;;;;;;;;5017192;28;8787;-62
2022/05/05 13:23:11;;;;;;;;;54.50;43.50;;;;;;;;5019211;28;8788;-62
2022/05/05 13:25:38;;;;;;;;;56.25;43.00;;;;;;;;5036348;28;8792;-62
2022/05/05 13:28:05;;;;;;;;;50.75;42.50;;;;;;;;5037200;28;8765;-62
2022/05/05 13:30:32;;;;;;;;;49.75;41.00;;;;;;;;5036709;28;9402;-62
2022/05/05 13:32:58;;;;;;;;;50.75;41.00;;;;;;;;5036757;28;8773;-62
2022/05/05 13:35:25;;;;;;;;;56.25;43.50;;;;;;;;5036549;28;8904;-62
2022/05/05 13:37:53;;;;;;;;;55.00;45.50;;;;;;;;5019116;28;8774;-63
2022/05/05 13:40:19;;;;;;;;;57.00;45.00;;;;;;;;5015922;28;8748;-61
2022/05/05 13:42:46;;;;;;;;;53.75;43.75;;;;;;;;5016470;28;8774;-62
2022/05/05 13:45:13;;;;;;;;;56.50;44.25;;;;;;;;5017055;28;8822;-63
2022/05/05 13:47:39;;;;;;;;;50.50;42.25;;;;;;;;5016800;28;8803;-62
2022/05/05 13:50:07;;;;;;;;;55.25;45.25;;;;;;;;4999517;28;8763;-63
2022/05/05 13:52:34;;;;;;;;;57.00;46.25;;;;;;;;5016966;28;8741;-62
2022/05/05 13:55:01;;;;;;;;;55.00;44.25;;;;;;;;5034327;28;8848;-62
2022/05/05 13:57:28;;;;;;;;;57.25;46.00;;;;;;;;5036071;28;8765;-62
2022/05/05 13:59:54;;;;;;;;;56.00;44.75;;;;;;;;5036421;28;8761;-62
2022/05/05 14:02:21;;;;;;;;;57.25;44.50;;;;;;;;5018795;28;8766;-62
2022/05/05 14:04:49;;;;;;;;;55.75;45.75;;;;;;;;5036187;28;8750;-63
2022/05/05 14:07:15;;;;;;;;;52.50;42.00;;;;;;;;5036798;28;9407;-62
2022/05/05 14:12:27;;;;;;;;;44.00;37.00;;;;;;;;5035968;28;8742;-62
2022/05/05 14:14:54;;;;;;;;;53.50;44.00;;;;;;;;5036255;28;8788;-62
2022/05/05 14:17:22;;;;;;;;;53.00;43.75;;;;;;;;5017954;28;8773;-62
2022/05/05 14:19:49;;;;;;;;;54.50;44.25;;;;;;;;5036565;28;8839;-62
2022/05/05 14:22:16;;;;;;;;;55.25;44.00;;;;;;;;5037034;28;9414;-62
2022/05/05 14:24:43;;;;;;;;;55.00;43.25;;;;;;;;5036034;28;8746;-62
2022/05/05 14:27:09;;;;;;;;;53.75;43.50;;;;;;;;5036014;28;8746;-62
2022/05/05 14:29:36;;;;;;;;;53.25;43.00;;;;;;;;5035795;28;8745;-62
2022/05/05 14:32:04;;;;;;;;;52.75;42.00;;;;;;;;5036514;28;8761;-63
2022/05/05 14:34:31;;;;;;;;;57.25;46.00;;;;;;;;5035494;28;8847;-63
2022/05/05 14:36:58;;;;;;;;;58.00;46.25;;;;;;;;5036600;28;8746;-62
2022/05/05 14:39:24;;;;;;;;;57.50;46.50;;;;;;;;5035635;28;8717;-62
2022/05/05 14:41:54;;;;;;;;;56.40;45.20;;;;;;;;5035877;28;8777;-62
2022/05/05 14:44:22;;;;;;;;;58.75;47.00;;;;;;;;5035675;28;8741;-62
2022/05/05 14:46:49;;;;;;;;;52.75;44.00;;;;;;;;5018305;28;8833;-63
2022/05/05 14:49:15;;;;;;;;;60.60;48.40;;;;;;;;5036670;28;8891;-62
2022/05/05 14:51:45;;;;;;;;;57.25;47.00;;;;;;;;5035887;28;8908;-62
2022/05/05 14:54:12;;;;;;;;;57.25;45.00;;;;;;;;5018485;28;8757;-62
2022/05/05 14:56:38;;;;;;;;;56.50;45.25;;;;;;;;5039241;28;8833;-63
2022/05/05 14:59:08;;;;;;;;;56.25;45.00;;;;;;;;5039251;28;8761;-62
2022/05/05 15:01:35;;;;;;;;;56.75;46.25;;;;;;;;5039239;28;8797;-63
2022/05/05 15:04:02;;;;;;;;;60.50;46.25;;;;;;;;5039963;28;8749;-62
2022/05/05 15:06:30;;;;;;;;;55.25;44.25;;;;;;;;5038845;28;8793;-62
2022/05/05 15:08:57;;;;;;;;;57.50;44.50;;;;;;;;5038829;28;8797;-62
2022/05/05 15:11:23;;;;;;;;;56.75;45.50;;;;;;;;5039465;28;8762;-62
2022/05/05 15:13:50;;;;;;;;;59.50;46.00;;;;;;;;5021718;28;8793;-63
2022/05/05 15:16:17;;;;;;;;;56.50;46.25;;;;;;;;5039271;28;8801;-64
2022/05/05 15:18:44;;;;;;;;;54.50;44.50;;;;;;;;5039085;28;8749;-64
2022/05/05 15:21:10;;;;;;;;;56.25;45.75;;;;;;;;5038811;28;9441;-62
2022/05/05 15:23:38;;;;;;;;;56.20;44.80;;;;;;;;5038557;28;8793;-63
2022/05/05 15:26:04;;;;;;;;;57.50;45.50;;;;;;;;5038889;28;8784;-62
2022/05/05 15:28:32;;;;;;;;;57.25;45.50;;;;;;;;5038477;28;8780;-63
2022/05/05 15:31:02;;;;;;;;;55.00;43.50;;;;;;;;5039375;28;8748;-63
2022/05/05 15:33:30;;;;;;;;;48.00;40.50;;;;;;;;5033561;28;8822;-63
2022/05/05 15:35:57;;;;;;;;;58.25;46.50;;;;;;;;5017883;28;8782;-62
2022/05/05 15:38:28;;;;;;;;;57.50;45.00;;;;;;;;5018639;28;8873;-62
2022/05/05 15:40:58;;;;;;;;;58.75;47.25;;;;;;;;5019166;28;9215;-63
2022/05/05 15:43:24;;;;;;;;;57.50;46.00;;;;;;;;5019811;28;8757;-62
2022/05/05 15:45:51;;;;;;;;;59.50;47.00;;;;;;;;5019145;28;8771;-62